sensor_id;sensor_type;location;lat;lon;timestamp;P1;durP1;ratioP1;P2;durP2;ratioP2
4806;SDS011;2417;52.482;13.432;2023-12-04T00:01:56;51.90;;;27.57;;
4806;SDS011;2417;52.482;13.432;2023-12-04T00:04:26;54.83;;;28.77;;
4806;SDS011;2417;52.482;13.432;2023-12-04T00:06:54;56.27;;;29.33;;
4806;SDS011;2417;52.482;13.432;2023-12-04T00:09:22;59.10;;;31.87;;
4806;SDS011;2417;52.482;13.432;2023-12-04T00:11:51;58.07;;;29.40;;
4806;SDS011;2417;52.482;13.432;2023-12-04T00:14:19;56.67;;;28.30;;
4806;SDS011;2417;52.482;13.432;2023-12-04T00:16:47;53.73;;;28.40;;
4806;SDS011;2417;52.482;13.432;2023-12-04T00:19:15;58.13;;;30.90;;
4806;SDS011;2417;52.482;13.432;2023-12-04T00:21:45;62.03;;;31.70;;
4806;SDS011;2417;52.482;13.432;2023-12-04T00:24:13;56.33;;;28.57;;
4806;SDS011;2417;52.482;13.432;2023-12-04T00:26:41;63.10;;;32.77;;
4806;SDS011;2417;52.482;13.432;2023-12-04T00:29:09;64.63;;;33.10;;
4806;SDS011;2417;52.482;13.432;2023-12-04T00:31:38;60.63;;;32.27;;
4806;SDS011;2417;52.482;13.432;2023-12-04T00:34:06;84.07;;;43.03;;
4806;SDS011;2417;52.482;13.432;2023-12-04T00:36:34;48.80;;;25.57;;
4806;SDS011;2417;52.482;13.432;2023-12-04T00:39:03;47.43;;;26.53;;
4806;SDS011;2417;52.482;13.432;2023-12-04T00:41:32;64.37;;;33.67;;
4806;SDS011;2417;52.482;13.432;2023-12-04T00:44:00;65.20;;;35.00;;
4806;SDS011;2417;52.482;13.432;2023-12-04T00:46:28;77.20;;;38.73;;
4806;SDS011;2417;52.482;13.432;2023-12-04T00:48:56;55.67;;;29.50;;
4806;SDS011;2417;52.482;13.432;2023-12-04T00:51:25;83.60;;;42.47;;
4806;SDS011;2417;52.482;13.432;2023-12-04T00:53:53;64.83;;;30.90;;
4806;SDS011;2417;52.482;13.432;2023-12-04T00:56:22;79.17;;;40.33;;
4806;SDS011;2417;52.482;13.432;2023-12-04T00:58:51;67.33;;;35.07;;
4806;SDS011;2417;52.482;13.432;2023-12-04T01:01:19;77.13;;;35.77;;
4806;SDS011;2417;52.482;13.432;2023-12-04T01:03:47;74.60;;;37.90;;
4806;SDS011;2417;52.482;13.432;2023-12-04T01:06:19;79.07;;;39.67;;
4806;SDS011;2417;52.482;13.432;2023-12-04T01:08:48;64.80;;;32.80;;
4806;SDS011;2417;52.482;13.432;2023-12-04T01:11:16;82.50;;;41.07;;
4806;SDS011;2417;52.482;13.432;2023-12-04T01:13:47;88.53;;;43.97;;
4806;SDS011;2417;52.482;13.432;2023-12-04T01:16:16;58.70;;;29.23;;
4806;SDS011;2417;52.482;13.432;2023-12-04T01:18:43;66.87;;;34.13;;
4806;SDS011;2417;52.482;13.432;2023-12-04T01:21:12;72.73;;;36.60;;
4806;SDS011;2417;52.482;13.432;2023-12-04T01:23:39;60.43;;;30.40;;
4806;SDS011;2417;52.482;13.432;2023-12-04T01:26:07;74.37;;;36.87;;
4806;SDS011;2417;52.482;13.432;2023-12-04T01:28:38;62.10;;;31.43;;
4806;SDS011;2417;52.482;13.432;2023-12-04T01:31:08;70.13;;;33.90;;
4806;SDS011;2417;52.482;13.432;2023-12-04T01:33:36;64.83;;;33.17;;
4806;SDS011;2417;52.482;13.432;2023-12-04T01:36:04;67.23;;;32.87;;
4806;SDS011;2417;52.482;13.432;2023-12-04T01:38:33;68.60;;;32.97;;
4806;SDS011;2417;52.482;13.432;2023-12-04T01:41:01;60.30;;;30.90;;
4806;SDS011;2417;52.482;13.432;2023-12-04T01:43:29;56.50;;;28.60;;
4806;SDS011;2417;52.482;13.432;2023-12-04T01:45:57;58.57;;;27.97;;
4806;SDS011;2417;52.482;13.432;2023-12-04T01:48:28;64.00;;;29.40;;
4806;SDS011;2417;52.482;13.432;2023-12-04T01:50:57;68.27;;;32.00;;
4806;SDS011;2417;52.482;13.432;2023-12-04T01:53:25;68.37;;;34.10;;
4806;SDS011;2417;52.482;13.432;2023-12-04T01:55:53;84.03;;;43.43;;
4806;SDS011;2417;52.482;13.432;2023-12-04T01:58:21;57.80;;;29.63;;
4806;SDS011;2417;52.482;13.432;2023-12-04T02:00:49;73.40;;;36.80;;
4806;SDS011;2417;52.482;13.432;2023-12-04T02:03:18;60.90;;;31.90;;
4806;SDS011;2417;52.482;13.432;2023-12-04T02:05:47;63.47;;;32.30;;
4806;SDS011;2417;52.482;13.432;2023-12-04T02:08:18;61.90;;;30.33;;
4806;SDS011;2417;52.482;13.432;2023-12-04T02:10:46;65.03;;;34.80;;
4806;SDS011;2417;52.482;13.432;2023-12-04T02:13:14;65.57;;;33.17;;
4806;SDS011;2417;52.482;13.432;2023-12-04T02:15:42;65.10;;;32.87;;
4806;SDS011;2417;52.482;13.432;2023-12-04T02:18:10;56.97;;;29.70;;
4806;SDS011;2417;52.482;13.432;2023-12-04T02:20:39;61.87;;;31.20;;
4806;SDS011;2417;52.482;13.432;2023-12-04T02:23:08;55.30;;;27.97;;
4806;SDS011;2417;52.482;13.432;2023-12-04T02:25:38;65.83;;;32.60;;
4806;SDS011;2417;52.482;13.432;2023-12-04T02:28:06;72.93;;;35.87;;
4806;SDS011;2417;52.482;13.432;2023-12-04T02:30:35;57.30;;;29.20;;
4806;SDS011;2417;52.482;13.432;2023-12-04T02:33:04;62.07;;;31.70;;
4806;SDS011;2417;52.482;13.432;2023-12-04T02:35:33;60.40;;;31.80;;
4806;SDS011;2417;52.482;13.432;2023-12-04T02:38:01;62.03;;;31.00;;
4806;SDS011;2417;52.482;13.432;2023-12-04T02:40:30;62.43;;;33.67;;
4806;SDS011;2417;52.482;13.432;2023-12-04T02:43:00;62.07;;;31.60;;
4806;SDS011;2417;52.482;13.432;2023-12-04T02:45:28;67.27;;;34.30;;
4806;SDS011;2417;52.482;13.432;2023-12-04T02:47:57;58.60;;;30.50;;
4806;SDS011;2417;52.482;13.432;2023-12-04T02:50:25;66.83;;;31.30;;
4806;SDS011;2417;52.482;13.432;2023-12-04T02:52:52;62.93;;;33.13;;
4806;SDS011;2417;52.482;13.432;2023-12-04T02:55:20;58.67;;;30.43;;
4806;SDS011;2417;52.482;13.432;2023-12-04T02:57:48;57.53;;;30.90;;
4806;SDS011;2417;52.482;13.432;2023-12-04T03:00:18;58.60;;;31.33;;
4806;SDS011;2417;52.482;13.432;2023-12-04T03:02:46;59.83;;;31.83;;
4806;SDS011;2417;52.482;13.432;2023-12-04T03:05:13;57.60;;;28.83;;
4806;SDS011;2417;52.482;13.432;2023-12-04T03:07:42;56.17;;;28.23;;
4806;SDS011;2417;52.482;13.432;2023-12-04T03:10:10;55.37;;;29.37;;
4806;SDS011;2417;52.482;13.432;2023-12-04T03:12:47;61.00;;;29.43;;
4806;SDS011;2417;52.482;13.432;2023-12-04T03:15:19;55.30;;;27.43;;
4806;SDS011;2417;52.482;13.432;2023-12-04T03:17:47;54.27;;;27.40;;
4806;SDS011;2417;52.482;13.432;2023-12-04T03:20:15;63.10;;;31.20;;
4806;SDS011;2417;52.482;13.432;2023-12-04T03:22:43;52.87;;;27.23;;
4806;SDS011;2417;52.482;13.432;2023-12-04T03:25:11;52.47;;;27.27;;
4806;SDS011;2417;52.482;13.432;2023-12-04T03:27:38;50.00;;;27.00;;
4806;SDS011;2417;52.482;13.432;2023-12-04T03:30:07;52.93;;;26.00;;
4806;SDS011;2417;52.482;13.432;2023-12-04T03:32:36;51.00;;;25.90;;
4806;SDS011;2417;52.482;13.432;2023-12-04T03:35:04;55.97;;;27.60;;
4806;SDS011;2417;52.482;13.432;2023-12-04T03:37:32;56.37;;;28.13;;
4806;SDS011;2417;52.482;13.432;2023-12-04T03:40:00;49.97;;;26.33;;
4806;SDS011;2417;52.482;13.432;2023-12-04T03:42:28;55.33;;;26.60;;
4806;SDS011;2417;52.482;13.432;2023-12-04T03:44:56;52.93;;;27.77;;
4806;SDS011;2417;52.482;13.432;2023-12-04T03:47:24;53.57;;;26.23;;
4806;SDS011;2417;52.482;13.432;2023-12-04T03:49:54;52.43;;;26.10;;
4806;SDS011;2417;52.482;13.432;2023-12-04T03:52:22;45.60;;;25.43;;
4806;SDS011;2417;52.482;13.432;2023-12-04T03:54:50;50.00;;;25.87;;
4806;SDS011;2417;52.482;13.432;2023-12-04T03:57:18;50.33;;;25.63;;
4806;SDS011;2417;52.482;13.432;2023-12-04T03:59:46;49.93;;;25.27;;
4806;SDS011;2417;52.482;13.432;2023-12-04T04:02:14;48.83;;;25.20;;
4806;SDS011;2417;52.482;13.432;2023-12-04T04:04:43;50.97;;;24.87;;
4806;SDS011;2417;52.482;13.432;2023-12-04T04:07:12;49.10;;;24.97;;
4806;SDS011;2417;52.482;13.432;2023-12-04T04:09:40;45.07;;;25.30;;
4806;SDS011;2417;52.482;13.432;2023-12-04T04:12:08;49.77;;;24.90;;
4806;SDS011;2417;52.482;13.432;2023-12-04T04:14:36;49.93;;;25.33;;
4806;SDS011;2417;52.482;13.432;2023-12-04T04:17:04;48.23;;;24.57;;
4806;SDS011;2417;52.482;13.432;2023-12-04T04:19:32;47.47;;;23.23;;
4806;SDS011;2417;52.482;13.432;2023-12-04T04:22:01;46.27;;;24.33;;
4806;SDS011;2417;52.482;13.432;2023-12-04T04:24:30;48.40;;;25.80;;
4806;SDS011;2417;52.482;13.432;2023-12-04T04:26:58;44.60;;;23.80;;
4806;SDS011;2417;52.482;13.432;2023-12-04T04:29:26;47.97;;;25.43;;
4806;SDS011;2417;52.482;13.432;2023-12-04T04:31:54;47.80;;;25.03;;
4806;SDS011;2417;52.482;13.432;2023-12-04T04:34:22;45.73;;;24.57;;
4806;SDS011;2417;52.482;13.432;2023-12-04T04:36:51;47.30;;;24.00;;
4806;SDS011;2417;52.482;13.432;2023-12-04T04:39:18;49.10;;;26.53;;
4806;SDS011;2417;52.482;13.432;2023-12-04T04:41:48;46.80;;;26.43;;
4806;SDS011;2417;52.482;13.432;2023-12-04T04:44:16;46.00;;;24.73;;
4806;SDS011;2417;52.482;13.432;2023-12-04T04:46:43;43.40;;;22.87;;
4806;SDS011;2417;52.482;13.432;2023-12-04T04:49:11;44.80;;;24.80;;
4806;SDS011;2417;52.482;13.432;2023-12-04T04:51:39;48.47;;;24.90;;
4806;SDS011;2417;52.482;13.432;2023-12-04T04:54:07;47.27;;;26.00;;
4806;SDS011;2417;52.482;13.432;2023-12-04T04:56:35;44.63;;;23.97;;
4806;SDS011;2417;52.482;13.432;2023-12-04T04:59:04;43.67;;;23.83;;
4806;SDS011;2417;52.482;13.432;2023-12-04T05:01:32;48.03;;;25.23;;
4806;SDS011;2417;52.482;13.432;2023-12-04T05:04:01;45.83;;;24.30;;
4806;SDS011;2417;52.482;13.432;2023-12-04T05:06:29;38.87;;;21.77;;
4806;SDS011;2417;52.482;13.432;2023-12-04T05:08:57;52.80;;;27.40;;
4806;SDS011;2417;52.482;13.432;2023-12-04T05:11:27;41.97;;;22.70;;
4806;SDS011;2417;52.482;13.432;2023-12-04T05:13:54;41.30;;;23.23;;
4806;SDS011;2417;52.482;13.432;2023-12-04T05:16:24;40.70;;;22.20;;
4806;SDS011;2417;52.482;13.432;2023-12-04T05:18:52;42.77;;;23.10;;
4806;SDS011;2417;52.482;13.432;2023-12-04T05:21:20;37.33;;;20.53;;
4806;SDS011;2417;52.482;13.432;2023-12-04T05:23:48;41.37;;;22.40;;
4806;SDS011;2417;52.482;13.432;2023-12-04T05:26:16;39.73;;;22.00;;
4806;SDS011;2417;52.482;13.432;2023-12-04T05:28:44;37.23;;;21.00;;
4806;SDS011;2417;52.482;13.432;2023-12-04T05:31:13;39.03;;;20.80;;
4806;SDS011;2417;52.482;13.432;2023-12-04T05:33:42;43.50;;;22.80;;
4806;SDS011;2417;52.482;13.432;2023-12-04T05:36:11;40.50;;;20.93;;
4806;SDS011;2417;52.482;13.432;2023-12-04T05:38:39;38.50;;;21.40;;
4806;SDS011;2417;52.482;13.432;2023-12-04T05:41:07;40.20;;;22.10;;
4806;SDS011;2417;52.482;13.432;2023-12-04T05:43:35;38.67;;;21.77;;
4806;SDS011;2417;52.482;13.432;2023-12-04T05:46:03;41.53;;;23.20;;
4806;SDS011;2417;52.482;13.432;2023-12-04T05:48:31;41.20;;;21.73;;
4806;SDS011;2417;52.482;13.432;2023-12-04T05:51:01;42.57;;;22.40;;
4806;SDS011;2417;52.482;13.432;2023-12-04T05:53:29;39.63;;;21.43;;
4806;SDS011;2417;52.482;13.432;2023-12-04T05:55:57;42.33;;;23.03;;
4806;SDS011;2417;52.482;13.432;2023-12-04T05:58:25;42.27;;;22.80;;
4806;SDS011;2417;52.482;13.432;2023-12-04T06:00:53;39.80;;;22.37;;
4806;SDS011;2417;52.482;13.432;2023-12-04T06:03:21;40.60;;;23.40;;
4806;SDS011;2417;52.482;13.432;2023-12-04T06:05:50;41.47;;;22.87;;
4806;SDS011;2417;52.482;13.432;2023-12-04T06:08:24;41.20;;;22.60;;
4806;SDS011;2417;52.482;13.432;2023-12-04T06:10:51;38.80;;;22.30;;
4806;SDS011;2417;52.482;13.432;2023-12-04T06:13:19;35.40;;;21.30;;
4806;SDS011;2417;52.482;13.432;2023-12-04T06:15:47;43.70;;;22.90;;
4806;SDS011;2417;52.482;13.432;2023-12-04T06:18:15;37.80;;;22.07;;
4806;SDS011;2417;52.482;13.432;2023-12-04T06:20:43;38.77;;;22.60;;
4806;SDS011;2417;52.482;13.432;2023-12-04T06:23:11;40.83;;;22.47;;
4806;SDS011;2417;52.482;13.432;2023-12-04T06:25:41;39.93;;;22.80;;
4806;SDS011;2417;52.482;13.432;2023-12-04T06:28:09;38.50;;;21.77;;
4806;SDS011;2417;52.482;13.432;2023-12-04T06:30:37;41.17;;;23.10;;
4806;SDS011;2417;52.482;13.432;2023-12-04T06:33:06;42.03;;;22.30;;
4806;SDS011;2417;52.482;13.432;2023-12-04T06:35:34;39.47;;;22.60;;
4806;SDS011;2417;52.482;13.432;2023-12-04T06:38:05;36.37;;;21.60;;
4806;SDS011;2417;52.482;13.432;2023-12-04T06:40:34;37.50;;;21.77;;
4806;SDS011;2417;52.482;13.432;2023-12-04T06:43:04;34.67;;;21.33;;
4806;SDS011;2417;52.482;13.432;2023-12-04T06:45:32;36.43;;;21.40;;
4806;SDS011;2417;52.482;13.432;2023-12-04T06:48:01;35.73;;;21.20;;
4806;SDS011;2417;52.482;13.432;2023-12-04T06:50:30;38.10;;;22.50;;
4806;SDS011;2417;52.482;13.432;2023-12-04T06:52:57;36.20;;;21.13;;
4806;SDS011;2417;52.482;13.432;2023-12-04T06:55:25;36.30;;;21.80;;
4806;SDS011;2417;52.482;13.432;2023-12-04T06:57:53;36.43;;;20.63;;
4806;SDS011;2417;52.482;13.432;2023-12-04T07:00:23;36.63;;;21.00;;
4806;SDS011;2417;52.482;13.432;2023-12-04T07:02:51;35.70;;;21.47;;
4806;SDS011;2417;52.482;13.432;2023-12-04T07:05:20;33.77;;;19.80;;
4806;SDS011;2417;52.482;13.432;2023-12-04T07:07:50;38.23;;;20.40;;
4806;SDS011;2417;52.482;13.432;2023-12-04T07:10:18;32.77;;;20.37;;
4806;SDS011;2417;52.482;13.432;2023-12-04T07:12:46;33.77;;;20.10;;
4806;SDS011;2417;52.482;13.432;2023-12-04T07:15:14;31.40;;;19.67;;
4806;SDS011;2417;52.482;13.432;2023-12-04T07:17:44;33.43;;;20.07;;
4806;SDS011;2417;52.482;13.432;2023-12-04T07:20:11;35.50;;;20.70;;
4806;SDS011;2417;52.482;13.432;2023-12-04T07:22:39;35.43;;;19.90;;
4806;SDS011;2417;52.482;13.432;2023-12-04T07:25:08;37.90;;;20.80;;
4806;SDS011;2417;52.482;13.432;2023-12-04T07:27:36;37.43;;;20.70;;
4806;SDS011;2417;52.482;13.432;2023-12-04T07:30:04;36.93;;;21.63;;
4806;SDS011;2417;52.482;13.432;2023-12-04T07:32:33;37.60;;;20.70;;
4806;SDS011;2417;52.482;13.432;2023-12-04T07:35:04;37.43;;;21.07;;
4806;SDS011;2417;52.482;13.432;2023-12-04T07:37:57;36.70;;;21.27;;
4806;SDS011;2417;52.482;13.432;2023-12-04T07:40:25;34.23;;;20.37;;
4806;SDS011;2417;52.482;13.432;2023-12-04T07:42:53;39.87;;;20.47;;
4806;SDS011;2417;52.482;13.432;2023-12-04T07:45:23;33.27;;;19.70;;
4806;SDS011;2417;52.482;13.432;2023-12-04T07:47:51;34.43;;;19.87;;
4806;SDS011;2417;52.482;13.432;2023-12-04T07:50:20;36.03;;;20.00;;
4806;SDS011;2417;52.482;13.432;2023-12-04T07:52:48;38.27;;;20.37;;
4806;SDS011;2417;52.482;13.432;2023-12-04T07:55:16;37.33;;;19.97;;
4806;SDS011;2417;52.482;13.432;2023-12-04T07:57:44;36.10;;;19.17;;
4806;SDS011;2417;52.482;13.432;2023-12-04T08:00:12;32.07;;;19.17;;
4806;SDS011;2417;52.482;13.432;2023-12-04T08:02:41;37.00;;;20.80;;
4806;SDS011;2417;52.482;13.432;2023-12-04T08:05:12;37.17;;;21.13;;
4806;SDS011;2417;52.482;13.432;2023-12-04T08:07:41;35.77;;;20.40;;
4806;SDS011;2417;52.482;13.432;2023-12-04T08:10:12;35.93;;;19.20;;
4806;SDS011;2417;52.482;13.432;2023-12-04T08:12:40;34.93;;;19.53;;
4806;SDS011;2417;52.482;13.432;2023-12-04T08:15:11;33.87;;;20.47;;
4806;SDS011;2417;52.482;13.432;2023-12-04T08:17:39;35.83;;;20.67;;
4806;SDS011;2417;52.482;13.432;2023-12-04T08:20:08;34.73;;;20.37;;
4806;SDS011;2417;52.482;13.432;2023-12-04T08:22:49;33.17;;;20.50;;
4806;SDS011;2417;52.482;13.432;2023-12-04T08:25:19;35.57;;;19.50;;
4806;SDS011;2417;52.482;13.432;2023-12-04T08:27:47;34.87;;;19.80;;
4806;SDS011;2417;52.482;13.432;2023-12-04T08:30:16;32.23;;;18.63;;
4806;SDS011;2417;52.482;13.432;2023-12-04T08:32:44;35.00;;;19.70;;
4806;SDS011;2417;52.482;13.432;2023-12-04T08:35:13;31.83;;;18.87;;
4806;SDS011;2417;52.482;13.432;2023-12-04T08:37:41;32.80;;;18.53;;
4806;SDS011;2417;52.482;13.432;2023-12-04T08:40:11;34.77;;;19.27;;
4806;SDS011;2417;52.482;13.432;2023-12-04T08:42:39;33.33;;;19.20;;
4806;SDS011;2417;52.482;13.432;2023-12-04T08:45:08;38.27;;;20.27;;
4806;SDS011;2417;52.482;13.432;2023-12-04T08:47:36;38.00;;;20.07;;
4806;SDS011;2417;52.482;13.432;2023-12-04T08:50:05;30.70;;;18.70;;
4806;SDS011;2417;52.482;13.432;2023-12-04T08:52:33;34.70;;;19.50;;
4806;SDS011;2417;52.482;13.432;2023-12-04T08:55:01;36.80;;;20.13;;
4806;SDS011;2417;52.482;13.432;2023-12-04T08:57:30;38.07;;;21.27;;
4806;SDS011;2417;52.482;13.432;2023-12-04T08:59:58;41.70;;;21.70;;
4806;SDS011;2417;52.482;13.432;2023-12-04T09:02:26;38.70;;;21.53;;
4806;SDS011;2417;52.482;13.432;2023-12-04T09:04:54;39.60;;;21.70;;
4806;SDS011;2417;52.482;13.432;2023-12-04T09:07:22;40.23;;;23.60;;
4806;SDS011;2417;52.482;13.432;2023-12-04T09:09:53;42.73;;;23.10;;
4806;SDS011;2417;52.482;13.432;2023-12-04T09:12:23;42.43;;;22.80;;
4806;SDS011;2417;52.482;13.432;2023-12-04T09:14:52;38.77;;;22.63;;
4806;SDS011;2417;52.482;13.432;2023-12-04T09:17:21;39.80;;;21.80;;
4806;SDS011;2417;52.482;13.432;2023-12-04T09:19:53;41.53;;;21.27;;
4806;SDS011;2417;52.482;13.432;2023-12-04T09:22:21;43.03;;;22.97;;
4806;SDS011;2417;52.482;13.432;2023-12-04T09:24:49;39.30;;;22.10;;
4806;SDS011;2417;52.482;13.432;2023-12-04T09:27:17;42.10;;;22.10;;
4806;SDS011;2417;52.482;13.432;2023-12-04T09:29:45;43.43;;;23.60;;
4806;SDS011;2417;52.482;13.432;2023-12-04T09:32:14;44.93;;;22.77;;
4806;SDS011;2417;52.482;13.432;2023-12-04T09:34:42;45.07;;;21.73;;
4806;SDS011;2417;52.482;13.432;2023-12-04T09:37:10;38.80;;;21.17;;
4806;SDS011;2417;52.482;13.432;2023-12-04T09:39:39;41.60;;;20.83;;
4806;SDS011;2417;52.482;13.432;2023-12-04T09:42:07;42.70;;;22.30;;
4806;SDS011;2417;52.482;13.432;2023-12-04T09:44:36;43.60;;;22.20;;
4806;SDS011;2417;52.482;13.432;2023-12-04T09:47:04;41.13;;;22.30;;
4806;SDS011;2417;52.482;13.432;2023-12-04T09:49:34;41.73;;;22.40;;
4806;SDS011;2417;52.482;13.432;2023-12-04T09:52:02;40.07;;;22.80;;
4806;SDS011;2417;52.482;13.432;2023-12-04T09:54:30;43.70;;;21.53;;
4806;SDS011;2417;52.482;13.432;2023-12-04T09:57:00;44.20;;;23.10;;
4806;SDS011;2417;52.482;13.432;2023-12-04T09:59:30;41.53;;;21.30;;
4806;SDS011;2417;52.482;13.432;2023-12-04T10:01:58;46.53;;;22.70;;
4806;SDS011;2417;52.482;13.432;2023-12-04T10:04:27;42.83;;;22.87;;
4806;SDS011;2417;52.482;13.432;2023-12-04T10:06:57;43.47;;;22.13;;
4806;SDS011;2417;52.482;13.432;2023-12-04T10:09:24;46.40;;;22.97;;
4806;SDS011;2417;52.482;13.432;2023-12-04T10:11:52;41.07;;;21.60;;
4806;SDS011;2417;52.482;13.432;2023-12-04T10:14:22;43.00;;;21.80;;
4806;SDS011;2417;52.482;13.432;2023-12-04T10:16:52;47.77;;;24.63;;
4806;SDS011;2417;52.482;13.432;2023-12-04T10:19:21;51.23;;;22.57;;
4806;SDS011;2417;52.482;13.432;2023-12-04T10:21:54;49.60;;;24.00;;
4806;SDS011;2417;52.482;13.432;2023-12-04T10:24:30;47.57;;;24.17;;
4806;SDS011;2417;52.482;13.432;2023-12-04T10:26:58;48.27;;;23.87;;
4806;SDS011;2417;52.482;13.432;2023-12-04T10:29:27;39.20;;;21.13;;
4806;SDS011;2417;52.482;13.432;2023-12-04T10:31:57;45.77;;;22.83;;
4806;SDS011;2417;52.482;13.432;2023-12-04T10:34:28;44.73;;;22.90;;
4806;SDS011;2417;52.482;13.432;2023-12-04T10:36:56;45.43;;;22.50;;
4806;SDS011;2417;52.482;13.432;2023-12-04T10:39:25;44.83;;;22.37;;
4806;SDS011;2417;52.482;13.432;2023-12-04T10:44:39;40.43;;;20.90;;
4806;SDS011;2417;52.482;13.432;2023-12-04T10:47:08;34.70;;;18.60;;
4806;SDS011;2417;52.482;13.432;2023-12-04T10:49:35;34.07;;;18.60;;
4806;SDS011;2417;52.482;13.432;2023-12-04T10:52:04;36.27;;;18.40;;
4806;SDS011;2417;52.482;13.432;2023-12-04T10:54:33;31.40;;;16.70;;
4806;SDS011;2417;52.482;13.432;2023-12-04T10:57:01;31.00;;;16.93;;
4806;SDS011;2417;52.482;13.432;2023-12-04T10:59:32;28.20;;;15.50;;
4806;SDS011;2417;52.482;13.432;2023-12-04T11:02:05;31.07;;;14.70;;
4806;SDS011;2417;52.482;13.432;2023-12-04T11:04:37;27.67;;;15.63;;
4806;SDS011;2417;52.482;13.432;2023-12-04T11:07:06;30.50;;;15.10;;
4806;SDS011;2417;52.482;13.432;2023-12-04T11:09:35;26.60;;;14.47;;
4806;SDS011;2417;52.482;13.432;2023-12-04T11:12:05;28.13;;;15.00;;
4806;SDS011;2417;52.482;13.432;2023-12-04T11:14:42;30.17;;;15.77;;
4806;SDS011;2417;52.482;13.432;2023-12-04T11:17:12;23.97;;;14.20;;
4806;SDS011;2417;52.482;13.432;2023-12-04T11:19:45;24.87;;;13.60;;
4806;SDS011;2417;52.482;13.432;2023-12-04T11:22:15;24.50;;;13.93;;
4806;SDS011;2417;52.482;13.432;2023-12-04T11:24:46;23.40;;;13.90;;
4806;SDS011;2417;52.482;13.432;2023-12-04T11:27:15;24.13;;;12.80;;
4806;SDS011;2417;52.482;13.432;2023-12-04T11:29:44;21.53;;;12.73;;
4806;SDS011;2417;52.482;13.432;2023-12-04T11:32:14;22.90;;;12.87;;
4806;SDS011;2417;52.482;13.432;2023-12-04T11:34:47;20.07;;;12.57;;
4806;SDS011;2417;52.482;13.432;2023-12-04T11:37:16;22.23;;;12.50;;
4806;SDS011;2417;52.482;13.432;2023-12-04T11:39:45;20.90;;;12.27;;
4806;SDS011;2417;52.482;13.432;2023-12-04T11:42:18;25.43;;;13.00;;
4806;SDS011;2417;52.482;13.432;2023-12-04T11:44:47;23.50;;;12.80;;
4806;SDS011;2417;52.482;13.432;2023-12-04T11:47:16;21.50;;;12.60;;
4806;SDS011;2417;52.482;13.432;2023-12-04T11:49:45;23.87;;;13.17;;
4806;SDS011;2417;52.482;13.432;2023-12-04T11:52:12;21.57;;;12.80;;
4806;SDS011;2417;52.482;13.432;2023-12-04T11:54:56;20.67;;;12.27;;
4806;SDS011;2417;52.482;13.432;2023-12-04T11:57:25;22.27;;;12.37;;
4806;SDS011;2417;52.482;13.432;2023-12-04T12:00:09;22.13;;;12.37;;
4806;SDS011;2417;52.482;13.432;2023-12-04T12:02:40;20.57;;;12.10;;
4806;SDS011;2417;52.482;13.432;2023-12-04T12:05:29;21.90;;;11.97;;
4806;SDS011;2417;52.482;13.432;2023-12-04T12:08:00;22.53;;;12.30;;
4806;SDS011;2417;52.482;13.432;2023-12-04T12:10:29;20.70;;;11.60;;
4806;SDS011;2417;52.482;13.432;2023-12-04T12:12:58;23.57;;;12.33;;
4806;SDS011;2417;52.482;13.432;2023-12-04T12:15:28;25.97;;;13.17;;
4806;SDS011;2417;52.482;13.432;2023-12-04T12:17:58;22.27;;;13.17;;
4806;SDS011;2417;52.482;13.432;2023-12-04T12:20:26;22.17;;;12.40;;
4806;SDS011;2417;52.482;13.432;2023-12-04T12:22:54;20.37;;;11.90;;
4806;SDS011;2417;52.482;13.432;2023-12-04T12:25:23;19.70;;;12.00;;
4806;SDS011;2417;52.482;13.432;2023-12-04T12:27:52;21.80;;;12.03;;
4806;SDS011;2417;52.482;13.432;2023-12-04T12:30:21;28.80;;;13.43;;
4806;SDS011;2417;52.482;13.432;2023-12-04T12:32:50;22.87;;;11.97;;
4806;SDS011;2417;52.482;13.432;2023-12-04T12:35:20;22.90;;;12.70;;
4806;SDS011;2417;52.482;13.432;2023-12-04T12:37:50;25.70;;;12.97;;
4806;SDS011;2417;52.482;13.432;2023-12-04T12:40:20;21.67;;;12.40;;
4806;SDS011;2417;52.482;13.432;2023-12-04T12:42:49;19.50;;;11.87;;
4806;SDS011;2417;52.482;13.432;2023-12-04T12:45:19;19.47;;;11.50;;
4806;SDS011;2417;52.482;13.432;2023-12-04T12:47:48;25.20;;;12.97;;
4806;SDS011;2417;52.482;13.432;2023-12-04T12:50:20;23.53;;;13.53;;
4806;SDS011;2417;52.482;13.432;2023-12-04T12:52:50;27.43;;;14.20;;
4806;SDS011;2417;52.482;13.432;2023-12-04T12:55:23;22.53;;;12.33;;
4806;SDS011;2417;52.482;13.432;2023-12-04T12:57:55;21.60;;;11.90;;
4806;SDS011;2417;52.482;13.432;2023-12-04T13:00:26;19.03;;;11.40;;
4806;SDS011;2417;52.482;13.432;2023-12-04T13:02:55;23.87;;;12.80;;
4806;SDS011;2417;52.482;13.432;2023-12-04T13:05:24;22.50;;;12.60;;
4806;SDS011;2417;52.482;13.432;2023-12-04T13:07:53;27.13;;;13.87;;
4806;SDS011;2417;52.482;13.432;2023-12-04T13:10:22;21.30;;;12.20;;
4806;SDS011;2417;52.482;13.432;2023-12-04T13:12:51;23.83;;;12.70;;
4806;SDS011;2417;52.482;13.432;2023-12-04T13:15:22;22.53;;;12.87;;
4806;SDS011;2417;52.482;13.432;2023-12-04T13:17:50;21.90;;;12.37;;
4806;SDS011;2417;52.482;13.432;2023-12-04T13:20:18;24.07;;;12.50;;
4806;SDS011;2417;52.482;13.432;2023-12-04T13:22:47;21.17;;;12.17;;
4806;SDS011;2417;52.482;13.432;2023-12-04T13:25:16;25.30;;;13.00;;
4806;SDS011;2417;52.482;13.432;2023-12-04T13:27:44;21.20;;;11.67;;
4806;SDS011;2417;52.482;13.432;2023-12-04T13:30:11;21.70;;;12.50;;
4806;SDS011;2417;52.482;13.432;2023-12-04T13:32:39;23.13;;;12.90;;
4806;SDS011;2417;52.482;13.432;2023-12-04T13:35:08;21.47;;;12.57;;
4806;SDS011;2417;52.482;13.432;2023-12-04T13:37:36;24.03;;;12.07;;
4806;SDS011;2417;52.482;13.432;2023-12-04T13:40:07;25.63;;;13.40;;
4806;SDS011;2417;52.482;13.432;2023-12-04T13:42:39;24.60;;;12.70;;
4806;SDS011;2417;52.482;13.432;2023-12-04T13:46:01;24.00;;;13.70;;
4806;SDS011;2417;52.482;13.432;2023-12-04T13:48:36;20.23;;;12.10;;
4806;SDS011;2417;52.482;13.432;2023-12-04T13:51:08;23.00;;;13.23;;
4806;SDS011;2417;52.482;13.432;2023-12-04T13:53:36;24.30;;;13.73;;
4806;SDS011;2417;52.482;13.432;2023-12-04T13:56:08;22.47;;;12.73;;
4806;SDS011;2417;52.482;13.432;2023-12-04T13:58:51;19.93;;;11.97;;
4806;SDS011;2417;52.482;13.432;2023-12-04T14:01:23;21.00;;;12.30;;
4806;SDS011;2417;52.482;13.432;2023-12-04T14:03:55;20.33;;;11.23;;
4806;SDS011;2417;52.482;13.432;2023-12-04T14:06:29;23.20;;;11.90;;
4806;SDS011;2417;52.482;13.432;2023-12-04T14:08:58;19.07;;;11.00;;
4806;SDS011;2417;52.482;13.432;2023-12-04T14:11:27;21.67;;;12.77;;
4806;SDS011;2417;52.482;13.432;2023-12-04T14:13:55;21.63;;;12.47;;
4806;SDS011;2417;52.482;13.432;2023-12-04T14:16:23;23.20;;;11.93;;
4806;SDS011;2417;52.482;13.432;2023-12-04T14:18:51;19.70;;;11.77;;
4806;SDS011;2417;52.482;13.432;2023-12-04T14:21:20;23.33;;;13.40;;
4806;SDS011;2417;52.482;13.432;2023-12-04T14:23:48;19.20;;;11.27;;
4806;SDS011;2417;52.482;13.432;2023-12-04T14:26:16;19.57;;;11.40;;
4806;SDS011;2417;52.482;13.432;2023-12-04T14:28:45;24.70;;;12.57;;
4806;SDS011;2417;52.482;13.432;2023-12-04T14:31:15;21.53;;;12.60;;
4806;SDS011;2417;52.482;13.432;2023-12-04T14:33:44;20.83;;;13.10;;
4806;SDS011;2417;52.482;13.432;2023-12-04T14:36:12;22.43;;;13.10;;
4806;SDS011;2417;52.482;13.432;2023-12-04T14:38:40;26.43;;;14.40;;
4806;SDS011;2417;52.482;13.432;2023-12-04T14:41:08;25.83;;;13.63;;
4806;SDS011;2417;52.482;13.432;2023-12-04T14:43:36;24.17;;;13.50;;
4806;SDS011;2417;52.482;13.432;2023-12-04T14:46:07;23.60;;;12.10;;
4806;SDS011;2417;52.482;13.432;2023-12-04T14:48:39;23.40;;;12.40;;